Archival Weather

John F Kennedy Intl

New York, New York (KJFK)

Report from: Thursday, September 21, 2023 10:51 PM EDT
Current time: Sunday, February 25, 2024 4:22 PM EST

Current weather – Weather history – Daily summaries
Weather forecast

Temperature16.1°C (61.0°F)
Dew point11.7°C (53.1°F)
Winds 3 kts (1.5 m/s, 3.5 mph) Northeast (50°)
Visibility10 mi. (16.1 km)
Clouds Few clouds 4,200 ft. (1,280 m)
Ceiling: Broken clouds 25,000 ft. (7,620 m)
Altimeter30.29 in.Hg (1026 mB)
Relative humidity75 %
Density altitude-93 ft. (-28 m)
Sea-level pressure102.6 kPa (1026 mB, 30.29 in.Hg)
Remarks Automated weather observing station with precipitation discriminator
Pressure rising more slowly
Flight conditions Visual Meteorological Conditions
Raw dataKJFK 220251Z 05003KT 10SM FEW042 BKN250 16/12 A3029 RMK AO2 SLP256 T01610117 51003
An error has occurred. This application may no longer respond until reloaded. Reload 🗙